createdAt,value
2023-04-01T00:02:22.412Z,10.14
2023-04-01T00:05:22.374Z,10.05
2023-04-01T00:08:22.345Z,10.00
2023-04-01T00:11:22.342Z,10.00
2023-04-01T00:14:22.365Z,9.93
2023-04-01T00:17:22.342Z,9.92
2023-04-01T00:20:22.389Z,9.90
2023-04-01T00:23:22.349Z,9.69
2023-04-01T00:26:22.641Z,9.80
2023-04-01T00:29:22.393Z,9.85
2023-04-01T00:32:22.546Z,9.80
2023-04-01T00:35:22.353Z,9.77
2023-04-01T00:38:22.340Z,9.77
2023-04-01T00:41:23.391Z,9.76
2023-04-01T00:44:31.385Z,9.76
2023-04-01T00:47:31.342Z,9.79
2023-04-01T00:50:31.380Z,9.81
2023-04-01T00:53:32.342Z,9.79
2023-04-01T00:56:36.338Z,9.76
2023-04-01T00:59:45.366Z,9.75
2023-04-01T01:02:46.489Z,9.69
2023-04-01T01:06:00.368Z,9.68
2023-04-01T01:09:03.338Z,9.70
2023-04-01T01:12:09.341Z,9.70
2023-04-01T01:15:28.356Z,9.60
2023-04-01T01:18:41.341Z,9.61
2023-04-01T01:22:08.376Z,9.68
2023-04-01T01:25:14.366Z,9.69
2023-04-01T01:28:30.393Z,9.67
2023-04-01T01:31:52.381Z,9.51
2023-04-01T01:35:00.353Z,9.62
2023-04-01T01:38:01.342Z,9.41
2023-04-01T01:41:05.379Z,9.54
2023-04-01T01:44:06.343Z,9.32
2023-04-01T01:47:06.393Z,9.40
2023-04-01T01:50:07.378Z,9.36
2023-04-01T01:53:15.348Z,9.30
2023-04-01T01:56:15.382Z,9.32
2023-04-01T01:59:18.351Z,9.29
2023-04-01T02:02:18.371Z,9.29
2023-04-01T02:05:19.367Z,9.26
2023-04-01T02:08:29.386Z,9.19
2023-04-01T02:11:31.404Z,9.18
2023-04-01T02:14:32.393Z,9.09
2023-04-01T02:17:34.402Z,8.96
2023-04-01T02:20:36.342Z,9.07
2023-04-01T02:23:36.344Z,9.04
2023-04-01T02:26:36.351Z,9.01
2023-04-01T02:29:38.376Z,8.99
2023-04-01T02:32:38.391Z,8.98
2023-04-01T02:35:38.386Z,8.96
2023-04-01T02:38:38.398Z,8.83
2023-04-01T02:41:38.353Z,9.00
2023-04-01T02:44:38.378Z,9.05
2023-04-01T02:47:38.437Z,9.02
2023-04-01T02:50:38.406Z,9.04
2023-04-01T02:53:38.348Z,9.05
2023-04-01T02:56:38.398Z,9.04
2023-04-01T02:59:38.370Z,9.03
2023-04-01T03:02:38.439Z,9.11
2023-04-01T03:05:38.392Z,9.08
2023-04-01T03:08:38.341Z,9.04
2023-04-01T03:11:38.367Z,8.98
2023-04-01T03:14:38.337Z,9.02
2023-04-01T03:17:38.451Z,9.00
2023-04-01T03:20:38.413Z,8.97
2023-04-01T03:23:38.353Z,8.95
2023-04-01T03:26:38.347Z,8.95
2023-04-01T03:29:38.382Z,8.95
2023-04-01T03:32:39.416Z,8.93
2023-04-01T03:35:39.340Z,8.93
2023-04-01T03:38:39.383Z,8.89
2023-04-01T03:41:39.372Z,8.90
2023-04-01T03:44:39.369Z,8.81
2023-04-01T03:47:39.378Z,8.80
2023-04-01T03:50:39.350Z,8.81
2023-04-01T03:53:39.384Z,8.77
2023-04-01T03:56:39.378Z,8.71
2023-04-01T03:59:39.337Z,8.59
2023-04-01T04:02:39.390Z,8.54
2023-04-01T04:05:40.347Z,8.47
2023-04-01T04:08:40.351Z,8.42
2023-04-01T04:11:40.397Z,8.36
2023-04-01T04:14:40.366Z,8.25
2023-04-01T04:17:40.464Z,8.17
2023-04-01T04:20:40.342Z,8.15
2023-04-01T04:23:41.386Z,8.07
2023-04-01T04:26:41.377Z,8.03
2023-04-01T04:29:41.379Z,7.90
2023-04-01T04:32:41.360Z,8.02
2023-04-01T04:35:41.372Z,7.94
2023-04-01T04:38:41.342Z,7.90
2023-04-01T04:41:41.363Z,7.86
2023-04-01T04:44:41.372Z,7.85
2023-04-01T04:47:41.390Z,7.79
2023-04-01T04:50:41.379Z,7.86
2023-04-01T04:53:41.359Z,7.83
2023-04-01T04:56:41.382Z,7.77
2023-04-01T04:59:41.415Z,7.77
2023-04-01T05:02:42.419Z,7.81
2023-04-01T05:05:42.372Z,7.81
2023-04-01T05:08:42.402Z,7.84
2023-04-01T05:11:42.340Z,7.93
2023-04-01T05:14:42.327Z,7.93
2023-04-01T05:17:35.400Z,8.00
2023-04-01T05:20:23.346Z,8.10
2023-04-01T05:23:23.366Z,8.18
2023-04-01T05:26:26.342Z,8.14
2023-04-01T05:29:26.340Z,8.28
2023-04-01T05:32:26.383Z,8.38
2023-04-01T05:35:27.393Z,8.48
2023-04-01T05:38:20.348Z,8.60
2023-04-01T05:41:13.355Z,8.68
2023-04-01T05:44:13.355Z,8.70
2023-04-01T05:47:19.322Z,8.83
2023-04-01T05:50:19.336Z,8.81
2023-04-01T05:53:19.326Z,9.06
2023-04-01T05:56:19.363Z,9.14
2023-04-01T05:59:20.385Z,9.07
2023-04-01T06:02:20.431Z,9.22
2023-04-01T06:05:33.553Z,9.25
2023-04-01T06:08:33.368Z,9.36
2023-04-01T06:11:48.338Z,9.48
2023-04-01T06:15:24.429Z,9.63
2023-04-01T06:19:06.380Z,9.48
2023-04-01T06:22:30.348Z,9.60
2023-04-01T06:26:00.345Z,9.61
2023-04-01T06:29:20.371Z,9.63
2023-04-01T06:32:51.413Z,9.55
2023-04-01T06:36:06.460Z,9.74
2023-04-01T06:39:18.335Z,9.88
2023-04-01T06:43:04.385Z,10.13
2023-04-01T06:46:15.404Z,10.24
2023-04-01T06:49:48.371Z,10.57
2023-04-01T06:53:20.369Z,10.75
2023-04-01T06:56:34.348Z,10.71
2023-04-01T06:59:37.402Z,10.69
2023-04-01T07:02:48.386Z,10.84
2023-04-01T07:05:49.396Z,10.84
2023-04-01T07:08:52.364Z,11.17
2023-04-01T07:11:53.358Z,11.51
2023-04-01T07:14:58.344Z,11.52
2023-04-01T07:17:58.399Z,11.65
2023-04-01T07:20:59.377Z,11.76
2023-04-01T07:24:00.361Z,13.00
2023-04-01T07:27:00.383Z,12.51
2023-04-01T07:30:01.355Z,13.01
2023-04-01T07:33:19.371Z,13.24
2023-04-01T07:36:37.349Z,13.72
2023-04-01T07:39:56.363Z,14.32
2023-04-01T07:43:20.433Z,15.50
2023-04-01T07:46:38.425Z,15.81
2023-04-01T07:49:47.325Z,15.47
2023-04-01T07:53:07.362Z,16.45
2023-04-01T07:56:27.341Z,17.06
2023-04-01T07:59:45.352Z,17.93
2023-04-01T08:03:07.409Z,17.41
2023-04-01T08:06:39.357Z,18.74
2023-04-01T08:09:58.333Z,18.16
2023-04-01T08:13:07.350Z,18.01
2023-04-01T08:16:19.408Z,18.54
2023-04-01T08:19:36.357Z,19.16
2023-04-01T08:22:49.374Z,18.07
2023-04-01T08:25:53.342Z,18.52
2023-04-01T08:29:01.376Z,19.79
2023-04-01T08:32:15.391Z,20.49
2023-04-01T08:35:24.374Z,20.06
2023-04-01T08:38:35.400Z,19.09
2023-04-01T08:41:57.384Z,17.25
2023-04-01T08:45:30.503Z,19.07
2023-04-01T08:48:48.340Z,19.16
2023-04-01T08:52:07.361Z,20.44
2023-04-01T08:55:28.367Z,18.03
2023-04-01T08:58:37.383Z,18.92
2023-04-01T09:01:56.410Z,19.75
2023-04-01T09:05:20.374Z,20.58
2023-04-01T09:08:38.357Z,19.54
2023-04-01T09:12:12.399Z,20.92
2023-04-01T09:15:49.499Z,19.16
2023-04-01T09:18:56.361Z,18.85
2023-04-01T09:21:56.360Z,21.32
2023-04-01T09:25:36.381Z,20.29
2023-04-01T09:28:53.402Z,19.84
2023-04-01T09:32:05.380Z,18.11
2023-04-01T09:35:08.374Z,19.11
2023-04-01T09:38:08.380Z,21.12
2023-04-01T09:41:42.362Z,22.56
2023-04-01T09:44:49.392Z,23.84
2023-04-01T09:48:04.377Z,24.42
2023-04-01T09:51:25.418Z,24.86
2023-04-01T09:54:36.404Z,24.62
2023-04-01T09:57:48.408Z,25.18
2023-04-01T10:01:13.447Z,24.78
2023-04-01T10:04:52.382Z,23.26
2023-04-01T10:08:24.470Z,21.07
2023-04-01T10:11:42.382Z,20.73
2023-04-01T10:14:56.400Z,21.21
2023-04-01T10:18:08.440Z,20.03
2023-04-01T10:21:36.428Z,18.88
2023-04-01T10:24:54.439Z,18.29
2023-04-01T10:28:16.418Z,16.96
2023-04-01T10:31:55.480Z,17.09
2023-04-01T10:35:36.626Z,16.77
2023-04-01T10:39:10.453Z,16.02
2023-04-01T10:42:28.401Z,16.07
2023-04-01T10:45:58.382Z,15.65
2023-04-01T10:49:17.423Z,15.42
2023-04-01T10:52:30.415Z,15.32
2023-04-01T10:55:52.397Z,15.02
2023-04-01T10:59:16.452Z,14.91
2023-04-01T11:02:50.445Z,15.14
2023-04-01T11:06:11.397Z,15.10
2023-04-01T11:09:17.422Z,15.43
2023-04-01T11:12:38.390Z,15.70
2023-04-01T11:15:49.456Z,17.73
2023-04-01T11:19:14.376Z,19.72
2023-04-01T11:22:40.392Z,20.99
2023-04-01T11:25:59.392Z,19.61
2023-04-01T11:29:49.787Z,18.28
2023-04-01T11:32:57.510Z,17.38
2023-04-01T11:36:15.473Z,16.88
2023-04-01T11:39:34.448Z,16.96
2023-04-01T11:43:04.432Z,17.39
2023-04-01T11:46:25.405Z,17.33
2023-04-01T11:49:58.402Z,16.83
2023-04-01T11:53:02.436Z,16.40
2023-04-01T11:56:16.428Z,16.34
2023-04-01T11:59:16.443Z,16.46
2023-04-01T12:02:45.453Z,16.35
2023-04-01T12:05:49.397Z,16.24
2023-04-01T12:09:04.424Z,17.53
2023-04-01T12:12:22.472Z,18.42
2023-04-01T12:15:34.667Z,17.89
2023-04-01T12:18:48.426Z,17.61
2023-04-01T12:21:53.409Z,17.20
2023-04-01T12:25:19.465Z,17.10
2023-04-01T12:28:39.397Z,16.75
2023-04-01T12:32:00.534Z,16.99
2023-04-01T12:35:08.407Z,18.06
2023-04-01T12:38:45.468Z,18.03
2023-04-01T12:42:07.439Z,19.13
2023-04-01T12:45:49.673Z,19.27
2023-04-01T12:49:14.443Z,19.46
2023-04-01T12:52:24.452Z,18.66
2023-04-01T12:55:36.404Z,18.21
2023-04-01T12:59:03.457Z,17.97
2023-04-01T13:02:16.421Z,18.13
2023-04-01T13:05:53.408Z,18.58
2023-04-01T13:09:02.414Z,18.83
2023-04-01T13:12:10.434Z,17.94
2023-04-01T13:15:27.562Z,18.59
2023-04-01T13:18:50.426Z,18.35
2023-04-01T13:22:05.434Z,18.17
2023-04-01T13:25:17.456Z,17.73
2023-04-01T13:28:24.446Z,17.36
2023-04-01T13:32:18.474Z,16.95
2023-04-01T13:35:30.454Z,17.04
2023-04-01T13:38:55.429Z,17.36
2023-04-01T13:42:07.450Z,17.38
2023-04-01T13:45:19.458Z,17.33
2023-04-01T13:48:48.433Z,17.25
2023-04-01T13:52:10.427Z,16.84
2023-04-01T13:55:28.440Z,16.84
2023-04-01T13:59:03.463Z,16.59
2023-04-01T14:02:15.462Z,16.51
2023-04-01T14:05:41.919Z,16.56
2023-04-01T14:09:00.451Z,16.44
2023-04-01T14:12:19.456Z,16.39
2023-04-01T14:15:27.485Z,16.33
2023-04-01T14:18:33.465Z,16.28
2023-04-01T14:21:52.477Z,16.21
2023-04-01T14:25:01.422Z,16.03
2023-04-01T14:28:38.482Z,15.88
2023-04-01T14:32:15.443Z,15.93
2023-04-01T14:35:33.572Z,15.79
2023-04-01T14:38:57.421Z,15.78
2023-04-01T14:42:11.855Z,15.77
2023-04-01T14:45:57.480Z,15.73
2023-04-01T14:49:16.485Z,15.92
2023-04-01T14:52:43.416Z,16.02
2023-04-01T14:55:51.470Z,16.10
2023-04-01T14:59:04.477Z,16.11
2023-04-01T15:02:25.524Z,16.13
2023-04-01T15:05:59.437Z,15.98
2023-04-01T15:09:09.477Z,16.04
2023-04-01T15:12:18.485Z,16.02
2023-04-01T15:15:24.442Z,15.87
2023-04-01T15:18:55.477Z,15.92
2023-04-01T15:22:21.512Z,15.80
2023-04-01T15:25:56.433Z,15.83
2023-04-01T15:29:11.451Z,15.74
2023-04-01T15:32:16.484Z,15.69
2023-04-01T15:35:34.728Z,15.63
2023-04-01T15:39:02.463Z,15.51
2023-04-01T15:42:08.470Z,15.45
2023-04-01T15:45:34.712Z,15.35
2023-04-01T15:49:11.471Z,15.17
2023-04-01T15:52:39.434Z,15.16
2023-04-01T15:56:12.483Z,15.03
2023-04-01T15:59:24.504Z,14.89
2023-04-01T16:02:37.559Z,14.76
2023-04-01T16:06:09.509Z,14.64
2023-04-01T16:09:27.455Z,14.52
2023-04-01T16:12:48.496Z,14.39
2023-04-01T16:16:06.474Z,14.20
2023-04-01T16:19:36.481Z,14.09
2023-04-01T16:22:55.450Z,13.95
2023-04-01T16:25:58.495Z,13.81
2023-04-01T16:29:26.484Z,13.67
2023-04-01T16:33:04.540Z,13.55
2023-04-01T16:36:24.449Z,13.47
2023-04-01T16:39:48.461Z,13.28
2023-04-01T16:43:07.474Z,13.26
2023-04-01T16:46:13.568Z,13.09
2023-04-01T16:49:25.477Z,12.98
2023-04-01T16:52:25.457Z,12.86
2023-04-01T16:55:35.447Z,12.78
2023-04-01T16:58:38.474Z,12.66
2023-04-01T17:02:19.484Z,12.63
2023-04-01T17:05:28.479Z,12.58
2023-04-01T17:08:42.478Z,12.44
2023-04-01T17:12:04.452Z,12.33
2023-04-01T17:15:19.881Z,12.22
2023-04-01T17:18:28.479Z,12.09
2023-04-01T17:21:31.492Z,11.99
2023-04-01T17:25:11.492Z,11.93
2023-04-01T17:28:24.464Z,11.88
2023-04-01T17:31:42.484Z,11.83
2023-04-01T17:34:52.463Z,11.83
2023-04-01T17:38:13.507Z,11.82
2023-04-01T17:41:22.498Z,11.82
2023-04-01T17:44:46.459Z,11.83
2023-04-01T17:47:52.579Z,11.86
2023-04-01T17:51:17.511Z,11.90
2023-04-01T17:54:32.480Z,11.94
2023-04-01T17:57:50.496Z,11.97
2023-04-01T18:01:15.490Z,11.98
2023-04-01T18:04:25.475Z,11.99
2023-04-01T18:07:46.496Z,11.99
2023-04-01T18:11:14.521Z,12.00
2023-04-01T18:14:46.464Z,12.00
2023-04-01T18:18:04.585Z,12.01
2023-04-01T18:21:37.483Z,12.01
2023-04-01T18:24:43.474Z,12.04
2023-04-01T18:27:52.466Z,12.11
2023-04-01T18:30:53.476Z,12.04
2023-04-01T18:34:14.489Z,12.01
2023-04-01T18:37:30.470Z,11.94
2023-04-01T18:40:36.736Z,11.90
2023-04-01T18:43:55.473Z,11.92
2023-04-01T18:47:21.474Z,11.87
2023-04-01T18:50:37.505Z,11.85
2023-04-01T18:54:06.470Z,11.85
2023-04-01T18:57:15.518Z,11.80
2023-04-01T19:00:52.591Z,11.73
2023-04-01T19:03:58.602Z,11.68
2023-04-01T19:07:04.496Z,11.64
2023-04-01T19:10:04.493Z,11.55
2023-04-01T19:13:42.453Z,11.60
2023-04-01T19:17:04.478Z,11.56
2023-04-01T19:20:18.456Z,11.49
2023-04-01T19:23:39.508Z,11.41
2023-04-01T19:26:48.494Z,11.32
2023-04-01T19:30:13.465Z,11.21
2023-04-01T19:33:28.503Z,11.04
2023-04-01T19:36:54.455Z,10.90
2023-04-01T19:39:57.450Z,10.77
2023-04-01T19:42:57.467Z,10.64
2023-04-01T19:46:06.526Z,10.56
2023-04-01T19:49:24.475Z,10.51
2023-04-01T19:52:38.490Z,10.45
2023-04-01T19:56:02.501Z,10.43
2023-04-01T19:59:19.451Z,10.40
2023-04-01T20:02:23.496Z,10.20
2023-04-01T20:05:49.454Z,10.34
2023-04-01T20:09:04.525Z,10.22
2023-04-01T20:12:26.487Z,10.15
2023-04-01T20:15:44.548Z,10.04
2023-04-01T20:19:01.499Z,9.94
2023-04-01T20:22:01.482Z,9.84
2023-04-01T20:25:01.468Z,9.74
2023-04-01T20:28:25.477Z,9.56
2023-04-01T20:31:40.483Z,9.58
2023-04-01T20:35:14.522Z,9.51
2023-04-01T20:38:29.459Z,9.42
2023-04-01T20:41:42.515Z,9.35
2023-04-01T20:44:57.441Z,9.26
2023-04-01T20:48:03.547Z,9.02
2023-04-01T20:51:12.491Z,9.13
2023-04-01T20:54:15.506Z,9.11
2023-04-01T20:57:27.543Z,9.07
2023-04-01T21:00:37.513Z,9.04
2023-04-01T21:03:49.470Z,9.00
2023-04-01T21:07:12.523Z,8.95
2023-04-01T21:10:25.476Z,8.92
2023-04-01T21:13:44.472Z,8.88
2023-04-01T21:17:06.502Z,8.82
2023-04-01T21:20:28.491Z,8.75
2023-04-01T21:23:49.485Z,8.69
2023-04-01T21:26:55.518Z,8.63
2023-04-01T21:30:29.458Z,8.55
2023-04-01T21:34:00.484Z,8.50
2023-04-01T21:37:02.508Z,8.46
2023-04-01T21:40:29.515Z,8.50
2023-04-01T21:43:47.513Z,8.52
2023-04-01T21:47:02.471Z,8.51
2023-04-01T21:50:41.480Z,8.56
2023-04-01T21:53:47.471Z,8.53
2023-04-01T21:57:02.529Z,8.58
2023-04-01T22:00:23.512Z,8.58
2023-04-01T22:04:14.546Z,8.54
2023-04-01T22:07:32.453Z,8.49
2023-04-01T22:11:06.517Z,8.45
2023-04-01T22:14:27.532Z,8.40
2023-04-01T22:17:40.534Z,8.30
2023-04-01T22:21:14.474Z,8.36
2023-04-01T22:24:14.489Z,8.40
2023-04-01T22:27:35.449Z,8.33
2023-04-01T22:30:38.477Z,8.30
2023-04-01T22:34:15.495Z,8.23
2023-04-01T22:37:18.515Z,8.19
2023-04-01T22:40:18.511Z,8.14
2023-04-01T22:43:25.466Z,8.09
2023-04-01T22:47:04.470Z,8.05
2023-04-01T22:50:11.482Z,7.93
2023-04-01T22:53:15.541Z,7.97
2023-04-01T22:56:19.481Z,8.00
2023-04-01T22:59:29.498Z,7.93
2023-04-01T23:02:33.536Z,8.02
2023-04-01T23:05:34.773Z,8.01
2023-04-01T23:08:55.494Z,8.01
2023-04-01T23:12:05.504Z,8.02
2023-04-01T23:15:13.499Z,8.10
2023-04-01T23:18:42.501Z,8.12
2023-04-01T23:21:57.508Z,8.19
2023-04-01T23:25:32.757Z,8.14
2023-04-01T23:28:57.479Z,8.30
2023-04-01T23:31:59.498Z,8.32
2023-04-01T23:35:07.496Z,8.38
2023-04-01T23:38:07.489Z,8.45
2023-04-01T23:41:09.476Z,8.50
2023-04-01T23:44:21.497Z,8.53
2023-04-01T23:47:23.493Z,8.58
2023-04-01T23:50:36.464Z,8.61
2023-04-01T23:53:40.459Z,8.62
2023-04-01T23:57:08.523Z,8.62
